sensor_id;sensor_type;location;lat;lon;timestamp;pressure;altitude;pressure_sealevel;temperature;humidity
75006;BME280;63553;51.814;4.600;2024-02-23T00:01:30;98868.53;;;15.52;64.21
75006;BME280;63553;51.814;4.600;2024-02-23T00:03:56;98863.72;;;15.49;64.25
75006;BME280;63553;51.814;4.600;2024-02-23T00:06:21;98877.72;;;15.49;64.32
75006;BME280;63553;51.814;4.600;2024-02-23T00:08:48;98876.94;;;15.48;64.42
75006;BME280;63553;51.814;4.600;2024-02-23T00:11:14;98882.53;;;15.48;64.43
75006;BME280;63553;51.814;4.600;2024-02-23T00:13:39;98882.53;;;15.48;64.56
75006;BME280;63553;51.814;4.600;2024-02-23T00:16:05;98883.31;;;15.45;64.57
75006;BME280;63553;51.814;4.600;2024-02-23T00:18:30;98872.91;;;15.42;64.65
75006;BME280;63553;51.814;4.600;2024-02-23T00:20:55;98880.13;;;15.43;64.60
75006;BME280;63553;51.814;4.600;2024-02-23T00:23:21;98892.50;;;15.42;64.75
75006;BME280;63553;51.814;4.600;2024-02-23T00:25:46;98895.31;;;15.42;64.82
75006;BME280;63553;51.814;4.600;2024-02-23T00:28:12;98891.31;;;15.40;64.80
75006;BME280;63553;51.814;4.600;2024-02-23T00:30:37;98905.31;;;15.40;64.74
75006;BME280;63553;51.814;4.600;2024-02-23T00:33:03;98906.50;;;15.39;64.88
75006;BME280;63553;51.814;4.600;2024-02-23T00:35:28;98904.13;;;15.37;64.94
75006;BME280;63553;51.814;4.600;2024-02-23T00:37:53;98908.13;;;15.36;64.91
75006;BME280;63553;51.814;4.600;2024-02-23T00:40:19;98910.53;;;15.34;64.96
75006;BME280;63553;51.814;4.600;2024-02-23T00:42:44;98917.31;;;15.33;64.95
75006;BME280;63553;51.814;4.600;2024-02-23T00:45:09;98904.94;;;15.31;65.03
75006;BME280;63553;51.814;4.600;2024-02-23T00:47:35;98916.13;;;15.31;64.97
75006;BME280;63553;51.814;4.600;2024-02-23T00:50:03;98924.53;;;15.31;64.93
75006;BME280;63553;51.814;4.600;2024-02-23T00:52:29;98919.31;;;15.29;64.75
75006;BME280;63553;51.814;4.600;2024-02-23T00:54:54;98929.31;;;15.27;64.99
75006;BME280;63553;51.814;4.600;2024-02-23T00:57:19;98925.72;;;15.26;65.16
75006;BME280;63553;51.814;4.600;2024-02-23T00:59:52;98929.72;;;15.25;65.04
75006;BME280;63553;51.814;4.600;2024-02-23T01:02:17;98935.72;;;15.24;65.19
75006;BME280;63553;51.814;4.600;2024-02-23T01:04:42;98939.72;;;15.23;65.31
75006;BME280;63553;51.814;4.600;2024-02-23T01:07:08;98933.31;;;15.22;65.21
75006;BME280;63553;51.814;4.600;2024-02-23T01:09:33;98940.91;;;15.22;65.21
75006;BME280;63553;51.814;4.600;2024-02-23T01:11:59;98948.13;;;15.19;65.48
75006;BME280;63553;51.814;4.600;2024-02-23T01:14:25;98948.94;;;15.20;65.43
75006;BME280;63553;51.814;4.600;2024-02-23T01:16:50;98952.91;;;15.19;65.46
75006;BME280;63553;51.814;4.600;2024-02-23T01:19:15;98950.13;;;15.19;65.64
75006;BME280;63553;51.814;4.600;2024-02-23T01:21:41;98955.31;;;15.17;65.61
75006;BME280;63553;51.814;4.600;2024-02-23T01:24:06;98964.91;;;15.16;65.60
75006;BME280;63553;51.814;4.600;2024-02-23T01:26:31;98963.72;;;15.13;65.68
75006;BME280;63553;51.814;4.600;2024-02-23T01:28:57;98959.72;;;15.11;65.64
75006;BME280;63553;51.814;4.600;2024-02-23T01:31:22;98972.91;;;15.10;65.90
75006;BME280;63553;51.814;4.600;2024-02-23T01:33:47;98968.50;;;15.09;65.85
75006;BME280;63553;51.814;4.600;2024-02-23T01:36:14;98972.50;;;15.08;65.97
75006;BME280;63553;51.814;4.600;2024-02-23T01:38:40;98974.50;;;15.08;66.12
75006;BME280;63553;51.814;4.600;2024-02-23T01:41:08;98982.91;;;15.08;66.63
75006;BME280;63553;51.814;4.600;2024-02-23T01:43:33;98995.28;;;15.07;66.20
75006;BME280;63553;51.814;4.600;2024-02-23T01:45:58;98980.91;;;15.05;66.32
75006;BME280;63553;51.814;4.600;2024-02-23T01:48:24;98986.88;;;15.03;65.99
75006;BME280;63553;51.814;4.600;2024-02-23T01:50:50;98998.47;;;15.01;66.12
75006;BME280;63553;51.814;4.600;2024-02-23T01:53:16;98996.88;;;15.00;66.04
75006;BME280;63553;51.814;4.600;2024-02-23T01:55:45;99007.66;;;14.98;66.10
75006;BME280;63553;51.814;4.600;2024-02-23T01:58:10;99000.47;;;14.97;66.02
75006;BME280;63553;51.814;4.600;2024-02-23T02:00:36;98994.47;;;14.95;66.13
75006;BME280;63553;51.814;4.600;2024-02-23T02:03:02;98996.47;;;14.95;66.05
75006;BME280;63553;51.814;4.600;2024-02-23T02:05:28;99001.25;;;14.94;66.15
75006;BME280;63553;51.814;4.600;2024-02-23T02:07:55;99005.66;;;14.92;66.09
75006;BME280;63553;51.814;4.600;2024-02-23T02:10:24;99003.25;;;14.90;66.13
75006;BME280;63553;51.814;4.600;2024-02-23T02:12:49;99009.63;;;14.91;66.32
75006;BME280;63553;51.814;4.600;2024-02-23T02:15:14;99006.06;;;14.90;66.19
75006;BME280;63553;51.814;4.600;2024-02-23T02:17:40;99015.66;;;14.89;66.27
75006;BME280;63553;51.814;4.600;2024-02-23T02:20:07;99006.44;;;14.89;66.34
75006;BME280;63553;51.814;4.600;2024-02-23T02:22:35;99009.66;;;14.87;66.29
75006;BME280;63553;51.814;4.600;2024-02-23T02:25:01;99003.63;;;14.85;66.08
75006;BME280;63553;51.814;4.600;2024-02-23T02:27:26;99005.63;;;14.85;66.11
75006;BME280;63553;51.814;4.600;2024-02-23T02:29:52;99003.63;;;14.82;65.99
75006;BME280;63553;51.814;4.600;2024-02-23T02:32:17;99002.84;;;14.81;65.71
75006;BME280;63553;51.814;4.600;2024-02-23T02:34:43;99001.59;;;14.79;65.99
75006;BME280;63553;51.814;4.600;2024-02-23T02:37:08;99006.41;;;14.78;66.02
75006;BME280;63553;51.814;4.600;2024-02-23T02:39:34;99005.63;;;14.78;66.02
75006;BME280;63553;51.814;4.600;2024-02-23T02:41:59;99005.63;;;14.78;66.13
75006;BME280;63553;51.814;4.600;2024-02-23T02:44:25;99005.63;;;14.78;66.04
75006;BME280;63553;51.814;4.600;2024-02-23T02:46:51;99006.81;;;14.77;65.78
75006;BME280;63553;51.814;4.600;2024-02-23T02:49:17;99010.78;;;14.76;66.37
75006;BME280;63553;51.814;4.600;2024-02-23T02:51:42;99002.38;;;14.76;66.39
75006;BME280;63553;51.814;4.600;2024-02-23T02:54:07;99008.78;;;14.76;66.29
75006;BME280;63553;51.814;4.600;2024-02-23T02:56:33;99010.38;;;14.74;66.29
75006;BME280;63553;51.814;4.600;2024-02-23T02:58:58;99005.97;;;14.73;66.09
75006;BME280;63553;51.814;4.600;2024-02-23T03:01:24;99014.78;;;14.71;66.14
75006;BME280;63553;51.814;4.600;2024-02-23T03:03:49;99010.38;;;14.70;66.03
75006;BME280;63553;51.814;4.600;2024-02-23T03:06:14;99011.16;;;14.67;66.10
75006;BME280;63553;51.814;4.600;2024-02-23T03:08:42;99014.75;;;14.64;66.09
75006;BME280;63553;51.814;4.600;2024-02-23T03:11:08;99013.97;;;14.64;66.46
75006;BME280;63553;51.814;4.600;2024-02-23T03:13:33;99013.56;;;14.65;66.42
75006;BME280;63553;51.814;4.600;2024-02-23T03:15:58;99015.97;;;14.63;66.40
75006;BME280;63553;51.814;4.600;2024-02-23T03:18:23;99026.34;;;14.63;66.34
75006;BME280;63553;51.814;4.600;2024-02-23T03:20:49;99032.75;;;14.63;66.50
75006;BME280;63553;51.814;4.600;2024-02-23T03:23:14;99021.13;;;14.61;66.22
75006;BME280;63553;51.814;4.600;2024-02-23T03:25:39;99017.16;;;14.62;66.49
75006;BME280;63553;51.814;4.600;2024-02-23T03:28:05;99027.94;;;14.60;66.30
75006;BME280;63553;51.814;4.600;2024-02-23T03:30:30;99028.31;;;14.59;66.34
75006;BME280;63553;51.814;4.600;2024-02-23T03:32:55;99024.31;;;14.56;66.40
75006;BME280;63553;51.814;4.600;2024-02-23T03:35:21;99030.72;;;14.57;66.17
75006;BME280;63553;51.814;4.600;2024-02-23T03:37:46;99028.28;;;14.55;66.39
75006;BME280;63553;51.814;4.600;2024-02-23T03:40:12;99023.91;;;14.54;66.37
75006;BME280;63553;51.814;4.600;2024-02-23T03:42:38;99019.09;;;14.51;66.42
75006;BME280;63553;51.814;4.600;2024-02-23T03:45:04;99023.88;;;14.51;66.22
75006;BME280;63553;51.814;4.600;2024-02-23T03:47:30;99029.47;;;14.51;66.45
75006;BME280;63553;51.814;4.600;2024-02-23T03:49:55;99030.28;;;14.51;66.58
75006;BME280;63553;51.814;4.600;2024-02-23T03:52:20;99027.06;;;14.49;66.56
75006;BME280;63553;51.814;4.600;2024-02-23T03:54:46;99023.09;;;14.50;66.46
75006;BME280;63553;51.814;4.600;2024-02-23T03:57:11;99017.47;;;14.50;66.48
75006;BME280;63553;51.814;4.600;2024-02-23T03:59:36;99027.88;;;14.50;66.55
75006;BME280;63553;51.814;4.600;2024-02-23T04:02:06;99028.28;;;14.48;66.32
75006;BME280;63553;51.814;4.600;2024-02-23T04:04:31;99030.25;;;14.48;66.01
75006;BME280;63553;51.814;4.600;2024-02-23T04:06:57;99029.47;;;14.47;66.39
75006;BME280;63553;51.814;4.600;2024-02-23T04:09:22;99039.06;;;14.46;66.34
75006;BME280;63553;51.814;4.600;2024-02-23T04:11:48;99031.44;;;14.46;66.53
75006;BME280;63553;51.814;4.600;2024-02-23T04:14:13;99022.66;;;14.44;66.50
75006;BME280;63553;51.814;4.600;2024-02-23T04:16:39;99025.06;;;14.46;66.63
75006;BME280;63553;51.814;4.600;2024-02-23T04:19:04;99030.25;;;14.44;66.49
75006;BME280;63553;51.814;4.600;2024-02-23T04:21:29;99030.25;;;14.44;66.57
75006;BME280;63553;51.814;4.600;2024-02-23T04:23:55;99031.03;;;14.44;66.71
75006;BME280;63553;51.814;4.600;2024-02-23T04:26:20;99051.03;;;14.46;66.43
75006;BME280;63553;51.814;4.600;2024-02-23T04:28:45;99044.66;;;14.46;66.67
75006;BME280;63553;51.814;4.600;2024-02-23T04:31:11;99036.25;;;14.46;66.55
75006;BME280;63553;51.814;4.600;2024-02-23T04:33:37;99037.03;;;14.46;66.54
75006;BME280;63553;51.814;4.600;2024-02-23T04:36:03;99039.44;;;14.44;66.66
75006;BME280;63553;51.814;4.600;2024-02-23T04:38:29;99054.22;;;14.45;66.55
75006;BME280;63553;51.814;4.600;2024-02-23T04:40:55;99043.03;;;14.45;66.66
75006;BME280;63553;51.814;4.600;2024-02-23T04:43:21;99041.84;;;14.46;66.61
75006;BME280;63553;51.814;4.600;2024-02-23T04:45:47;99055.84;;;14.46;66.79
75006;BME280;63553;51.814;4.600;2024-02-23T04:48:12;99048.22;;;14.46;66.62
75006;BME280;63553;51.814;4.600;2024-02-23T04:50:37;99046.22;;;14.47;66.67
75006;BME280;63553;51.814;4.600;2024-02-23T04:53:03;99054.63;;;14.47;66.48
75006;BME280;63553;51.814;4.600;2024-02-23T04:55:28;99038.63;;;14.44;66.45
75006;BME280;63553;51.814;4.600;2024-02-23T04:57:54;99041.06;;;14.45;66.18
75006;BME280;63553;51.814;4.600;2024-02-23T05:00:19;99041.06;;;14.45;66.44
75006;BME280;63553;51.814;4.600;2024-02-23T05:02:45;99042.22;;;14.44;65.97
75006;BME280;63553;51.814;4.600;2024-02-23T05:05:11;99041.03;;;14.42;66.02
75006;BME280;63553;51.814;4.600;2024-02-23T05:07:37;99050.59;;;14.41;66.08
75006;BME280;63553;51.814;4.600;2024-02-23T05:10:03;99042.63;;;14.39;66.11
75006;BME280;63553;51.814;4.600;2024-02-23T05:12:29;99029.44;;;14.40;66.27
75006;BME280;63553;51.814;4.600;2024-02-23T05:14:54;99027.81;;;14.39;65.96
75006;BME280;63553;51.814;4.600;2024-02-23T05:17:19;99029.44;;;14.40;65.77
75006;BME280;63553;51.814;4.600;2024-02-23T05:19:45;99034.63;;;14.41;66.01
75006;BME280;63553;51.814;4.600;2024-02-23T05:22:11;99022.66;;;14.44;66.56
75006;BME280;63553;51.814;4.600;2024-02-23T05:24:37;99023.50;;;14.56;67.97
75006;BME280;63553;51.814;4.600;2024-02-23T05:27:02;99025.50;;;14.59;68.13
75006;BME280;63553;51.814;4.600;2024-02-23T05:29:28;99021.91;;;14.58;67.70
75006;BME280;63553;51.814;4.600;2024-02-23T05:31:53;99027.09;;;14.56;67.80
75006;BME280;63553;51.814;4.600;2024-02-23T05:34:19;99014.72;;;14.57;67.81
75006;BME280;63553;51.814;4.600;2024-02-23T05:36:45;99011.09;;;14.53;67.97
75006;BME280;63553;51.814;4.600;2024-02-23T05:39:11;99013.91;;;14.53;68.10
75006;BME280;63553;51.814;4.600;2024-02-23T05:41:38;99010.69;;;14.48;68.14
75006;BME280;63553;51.814;4.600;2024-02-23T05:44:04;99013.88;;;14.50;68.12
75006;BME280;63553;51.814;4.600;2024-02-23T05:46:32;99012.69;;;14.47;67.93
75006;BME280;63553;51.814;4.600;2024-02-23T05:48:57;98998.69;;;14.43;67.60
75006;BME280;63553;51.814;4.600;2024-02-23T05:51:23;99007.50;;;14.45;67.63
75006;BME280;63553;51.814;4.600;2024-02-23T05:53:48;99003.50;;;14.43;67.44
75006;BME280;63553;51.814;4.600;2024-02-23T05:56:14;98999.88;;;14.39;67.16
75006;BME280;63553;51.814;4.600;2024-02-23T05:58:39;99009.06;;;14.39;66.97
75006;BME280;63553;51.814;4.600;2024-02-23T06:01:05;99019.81;;;14.37;66.99
75006;BME280;63553;51.814;4.600;2024-02-23T06:03:30;99016.25;;;14.37;66.99
75006;BME280;63553;51.814;4.600;2024-02-23T06:05:55;99010.63;;;14.33;66.75
75006;BME280;63553;51.814;4.600;2024-02-23T06:08:21;99014.22;;;14.34;66.62
75006;BME280;63553;51.814;4.600;2024-02-23T06:10:46;99016.56;;;14.32;66.52
75006;BME280;63553;51.814;4.600;2024-02-23T06:13:11;99026.59;;;14.33;66.34
75006;BME280;63553;51.814;4.600;2024-02-23T06:15:37;99030.53;;;14.28;66.41
75006;BME280;63553;51.814;4.600;2024-02-23T06:18:03;99031.38;;;14.32;66.38
75006;BME280;63553;51.814;4.600;2024-02-23T06:20:29;99027.34;;;14.30;65.99
75006;BME280;63553;51.814;4.600;2024-02-23T06:22:55;99019.75;;;14.27;65.90
75006;BME280;63553;51.814;4.600;2024-02-23T06:25:21;99017.75;;;14.27;65.92
75006;BME280;63553;51.814;4.600;2024-02-23T06:27:46;99024.56;;;14.30;66.04
75006;BME280;63553;51.814;4.600;2024-02-23T06:30:11;99022.13;;;14.28;65.57
75006;BME280;63553;51.814;4.600;2024-02-23T06:32:39;99022.53;;;14.27;65.56
75006;BME280;63553;51.814;4.600;2024-02-23T06:35:05;99023.34;;;14.27;65.64
75006;BME280;63553;51.814;4.600;2024-02-23T06:37:32;99012.16;;;14.27;65.52
75006;BME280;63553;51.814;4.600;2024-02-23T06:39:57;99010.53;;;14.26;65.50
75006;BME280;63553;51.814;4.600;2024-02-23T06:42:23;99011.72;;;14.25;65.83
75006;BME280;63553;51.814;4.600;2024-02-23T06:44:49;99014.94;;;14.24;65.35
75006;BME280;63553;51.814;4.600;2024-02-23T06:47:14;99021.34;;;14.24;65.27
75006;BME280;63553;51.814;4.600;2024-02-23T06:49:43;99020.53;;;14.24;65.25
75006;BME280;63553;51.814;4.600;2024-02-23T06:52:09;99023.31;;;14.24;65.20
75006;BME280;63553;51.814;4.600;2024-02-23T06:54:35;99019.69;;;14.20;65.27
75006;BME280;63553;51.814;4.600;2024-02-23T06:57:00;99019.69;;;14.20;65.07
75006;BME280;63553;51.814;4.600;2024-02-23T06:59:26;99020.91;;;14.22;65.14
75006;BME280;63553;51.814;4.600;2024-02-23T07:01:51;99011.31;;;14.23;64.83
75006;BME280;63553;51.814;4.600;2024-02-23T07:04:17;99022.13;;;14.25;64.72
75006;BME280;63553;51.814;4.600;2024-02-23T07:06:43;99022.13;;;14.25;64.82
75006;BME280;63553;51.814;4.600;2024-02-23T07:09:09;99014.16;;;14.27;64.58
75006;BME280;63553;51.814;4.600;2024-02-23T07:11:36;99023.34;;;14.27;64.17
75006;BME280;63553;51.814;4.600;2024-02-23T07:14:02;99028.13;;;14.27;64.61
75006;BME280;63553;51.814;4.600;2024-02-23T07:16:27;99020.94;;;14.26;64.19
75006;BME280;63553;51.814;4.600;2024-02-23T07:18:52;99026.13;;;14.24;63.80
75006;BME280;63553;51.814;4.600;2024-02-23T07:21:18;99016.53;;;14.21;63.64
75006;BME280;63553;51.814;4.600;2024-02-23T07:23:44;99017.31;;;14.18;63.86
75006;BME280;63553;51.814;4.600;2024-02-23T07:26:09;99022.53;;;14.27;65.91
75006;BME280;63553;51.814;4.600;2024-02-23T07:28:34;99013.44;;;14.37;67.19
75006;BME280;63553;51.814;4.600;2024-02-23T07:31:00;98998.31;;;14.45;67.91
75006;BME280;63553;51.814;4.600;2024-02-23T07:33:25;99001.09;;;14.52;69.04
75006;BME280;63553;51.814;4.600;2024-02-23T07:35:50;99001.09;;;11.24;60.89
75006;BME280;63553;51.814;4.600;2024-02-23T07:38:16;99023.19;;;8.06;70.85
75006;BME280;63553;51.814;4.600;2024-02-23T07:40:43;99029.72;;;7.25;74.49
75006;BME280;63553;51.814;4.600;2024-02-23T07:43:09;99021.53;;;7.28;78.89
75006;BME280;63553;51.814;4.600;2024-02-23T07:45:36;99019.47;;;6.68;78.32
75006;BME280;63553;51.814;4.600;2024-02-23T07:48:02;99019.03;;;7.23;80.28
75006;BME280;63553;51.814;4.600;2024-02-23T07:50:27;99006.09;;;6.91;81.16
75006;BME280;63553;51.814;4.600;2024-02-23T07:52:52;99008.41;;;7.25;79.63
75006;BME280;63553;51.814;4.600;2024-02-23T07:55:18;99001.72;;;7.14;80.01
75006;BME280;63553;51.814;4.600;2024-02-23T07:57:43;99008.34;;;6.77;80.11
75006;BME280;63553;51.814;4.600;2024-02-23T08:00:09;99013.94;;;6.68;80.74
75006;BME280;63553;51.814;4.600;2024-02-23T08:02:35;99016.47;;;7.06;80.65
75006;BME280;63553;51.814;4.600;2024-02-23T08:05:03;99014.84;;;7.05;82.86
75006;BME280;63553;51.814;4.600;2024-02-23T08:07:29;99008.53;;;6.60;81.06
75006;BME280;63553;51.814;4.600;2024-02-23T08:09:56;99021.72;;;6.87;82.80
75006;BME280;63553;51.814;4.600;2024-02-23T08:12:21;99011.41;;;7.08;81.00
75006;BME280;63553;51.814;4.600;2024-02-23T08:14:46;99018.97;;;6.99;82.22
75006;BME280;63553;51.814;4.600;2024-02-23T08:17:14;99035.50;;;6.75;81.24
75006;BME280;63553;51.814;4.600;2024-02-23T08:19:39;99028.22;;;7.52;81.73
75006;BME280;63553;51.814;4.600;2024-02-23T08:22:04;99030.88;;;7.24;80.21
75006;BME280;63553;51.814;4.600;2024-02-23T08:24:30;99031.00;;;7.52;79.43
75006;BME280;63553;51.814;4.600;2024-02-23T08:26:55;99011.09;;;9.09;88.80
75006;BME280;63553;51.814;4.600;2024-02-23T08:29:20;99012.34;;;10.28;83.96
75006;BME280;63553;51.814;4.600;2024-02-23T08:31:46;99012.81;;;11.14;78.87
75006;BME280;63553;51.814;4.600;2024-02-23T08:34:11;99018.75;;;11.81;76.10
75006;BME280;63553;51.814;4.600;2024-02-23T08:36:37;99011.13;;;12.34;73.75
75006;BME280;63553;51.814;4.600;2024-02-23T08:39:03;99013.44;;;12.91;71.74
75006;BME280;63553;51.814;4.600;2024-02-23T08:41:28;99012.34;;;13.43;68.82
75006;BME280;63553;51.814;4.600;2024-02-23T08:43:54;99009.91;;;13.85;68.11
75006;BME280;63553;51.814;4.600;2024-02-23T08:46:20;99009.41;;;14.34;66.21
75006;BME280;63553;51.814;4.600;2024-02-23T08:48:47;99006.81;;;14.77;65.00
75006;BME280;63553;51.814;4.600;2024-02-23T08:51:12;99009.31;;;15.21;63.64
75006;BME280;63553;51.814;4.600;2024-02-23T08:53:38;99008.16;;;15.57;62.38
75006;BME280;63553;51.814;4.600;2024-02-23T08:56:04;99012.94;;;15.95;61.46
75006;BME280;63553;51.814;4.600;2024-02-23T08:58:29;99024.91;;;16.28;60.21
75006;BME280;63553;51.814;4.600;2024-02-23T09:00:55;99004.41;;;16.59;59.65
75006;BME280;63553;51.814;4.600;2024-02-23T09:03:20;99001.88;;;16.89;58.66
75006;BME280;63553;51.814;4.600;2024-02-23T09:05:46;99001.25;;;17.22;57.96
75006;BME280;63553;51.814;4.600;2024-02-23T09:08:13;98994.22;;;17.52;56.99
75006;BME280;63553;51.814;4.600;2024-02-23T09:10:39;99003.25;;;17.77;56.28
75006;BME280;63553;51.814;4.600;2024-02-23T09:13:04;98997.41;;;18.02;56.03
75006;BME280;63553;51.814;4.600;2024-02-23T09:15:31;98982.31;;;18.26;55.10
75006;BME280;63553;51.814;4.600;2024-02-23T09:17:56;98985.97;;;18.57;54.38
75006;BME280;63553;51.814;4.600;2024-02-23T09:20:22;98993.06;;;18.99;53.73
75006;BME280;63553;51.814;4.600;2024-02-23T09:22:48;98989.50;;;19.21;52.95
75006;BME280;63553;51.814;4.600;2024-02-23T09:25:14;98985.59;;;19.92;51.47
75006;BME280;63553;51.814;4.600;2024-02-23T09:27:39;98985.78;;;20.24;50.47
75006;BME280;63553;51.814;4.600;2024-02-23T09:30:10;99008.56;;;20.37;50.27
75006;BME280;63553;51.814;4.600;2024-02-23T09:32:36;98991.19;;;20.38;49.83
75006;BME280;63553;51.814;4.600;2024-02-23T09:35:01;99003.28;;;20.39;50.70
75006;BME280;63553;51.814;4.600;2024-02-23T09:37:28;99015.72;;;20.41;50.17
75006;BME280;63553;51.814;4.600;2024-02-23T09:39:54;99017.75;;;20.41;50.40
75006;BME280;63553;51.814;4.600;2024-02-23T09:42:22;99011.69;;;20.42;50.41
75006;BME280;63553;51.814;4.600;2024-02-23T09:44:57;99025.72;;;20.46;49.68
75006;BME280;63553;51.814;4.600;2024-02-23T09:47:24;99041.00;;;20.48;50.36
75006;BME280;63553;51.814;4.600;2024-02-23T09:49:49;99039.69;;;20.53;50.52
75006;BME280;63553;51.814;4.600;2024-02-23T09:52:18;99050.56;;;20.55;50.34
75006;BME280;63553;51.814;4.600;2024-02-23T09:54:45;99056.13;;;20.58;49.60
75006;BME280;63553;51.814;4.600;2024-02-23T09:57:10;99050.41;;;20.62;49.95
75006;BME280;63553;51.814;4.600;2024-02-23T09:59:36;99028.97;;;20.64;50.09
75006;BME280;63553;51.814;4.600;2024-02-23T10:02:15;99055.50;;;20.70;50.14
75006;BME280;63553;51.814;4.600;2024-02-23T10:04:41;99052.09;;;20.79;49.96
75006;BME280;63553;51.814;4.600;2024-02-23T10:07:08;99039.91;;;20.82;49.57
75006;BME280;63553;51.814;4.600;2024-02-23T10:09:34;99040.50;;;20.93;49.06
75006;BME280;63553;51.814;4.600;2024-02-23T10:12:03;99048.47;;;20.98;49.85
75006;BME280;63553;51.814;4.600;2024-02-23T10:14:29;99052.38;;;21.04;48.80
75006;BME280;63553;51.814;4.600;2024-02-23T10:16:54;99068.34;;;21.14;48.49
75006;BME280;63553;51.814;4.600;2024-02-23T10:19:21;99061.38;;;21.19;48.64
75006;BME280;63553;51.814;4.600;2024-02-23T10:21:46;99052.66;;;21.29;48.23
75006;BME280;63553;51.814;4.600;2024-02-23T10:24:12;99055.69;;;21.38;48.67
75006;BME280;63553;51.814;4.600;2024-02-23T10:26:38;99070.53;;;21.42;48.32
75006;BME280;63553;51.814;4.600;2024-02-23T10:29:03;99070.00;;;21.47;48.65
75006;BME280;63553;51.814;4.600;2024-02-23T10:31:34;99063.47;;;21.50;48.03
75006;BME280;63553;51.814;4.600;2024-02-23T10:34:04;99073.66;;;21.48;49.13
75006;BME280;63553;51.814;4.600;2024-02-23T10:36:36;99078.50;;;21.47;50.17
75006;BME280;63553;51.814;4.600;2024-02-23T10:39:02;99082.13;;;21.48;50.52
75006;BME280;63553;51.814;4.600;2024-02-23T10:41:33;99088.78;;;21.57;50.47
75006;BME280;63553;51.814;4.600;2024-02-23T10:44:00;99085.53;;;21.75;50.05
75006;BME280;63553;51.814;4.600;2024-02-23T10:46:26;99098.56;;;21.89;49.42
75006;BME280;63553;51.814;4.600;2024-02-23T10:48:54;99088.50;;;21.88;49.39
75006;BME280;63553;51.814;4.600;2024-02-23T10:51:21;99095.81;;;21.85;49.33
75006;BME280;63553;51.814;4.600;2024-02-23T10:53:46;99092.34;;;21.78;48.64
75006;BME280;63553;51.814;4.600;2024-02-23T10:56:13;99095.34;;;21.71;49.15
75006;BME280;63553;51.814;4.600;2024-02-23T10:58:39;99102.13;;;21.57;49.73
75006;BME280;63553;51.814;4.600;2024-02-23T11:01:07;99091.84;;;21.47;49.74
75006;BME280;63553;51.814;4.600;2024-02-23T11:03:35;99095.72;;;21.37;49.38
75006;BME280;63553;51.814;4.600;2024-02-23T11:06:00;99095.16;;;21.26;49.01
75006;BME280;63553;51.814;4.600;2024-02-23T11:08:29;99102.16;;;21.18;49.75
75006;BME280;63553;51.814;4.600;2024-02-23T11:10:55;99097.91;;;21.10;49.41
75006;BME280;63553;51.814;4.600;2024-02-23T11:13:30;99099.69;;;21.00;49.78
75006;BME280;63553;51.814;4.600;2024-02-23T11:16:02;99094.63;;;20.91;49.96
75006;BME280;63553;51.814;4.600;2024-02-23T11:18:30;99097.59;;;20.84;49.90
75006;BME280;63553;51.814;4.600;2024-02-23T11:21:05;99084.47;;;20.74;49.49
75006;BME280;63553;51.814;4.600;2024-02-23T11:24:04;99093.16;;;20.64;50.57
75006;BME280;63553;51.814;4.600;2024-02-23T11:26:29;99100.59;;;20.54;50.44
75006;BME280;63553;51.814;4.600;2024-02-23T11:28:55;99115.28;;;20.45;50.56
75006;BME280;63553;51.814;4.600;2024-02-23T11:31:22;99125.09;;;20.37;50.99
75006;BME280;63553;51.814;4.600;2024-02-23T11:33:49;99114.06;;;20.20;51.46
75006;BME280;63553;51.814;4.600;2024-02-23T11:36:22;99123.13;;;20.08;51.03
75006;BME280;63553;51.814;4.600;2024-02-23T11:38:52;99126.09;;;20.01;51.05
75006;BME280;63553;51.814;4.600;2024-02-23T11:41:18;99122.56;;;19.93;52.21
75006;BME280;63553;51.814;4.600;2024-02-23T11:43:44;99119.78;;;19.89;51.86
75006;BME280;63553;51.814;4.600;2024-02-23T11:46:09;99115.81;;;19.87;51.58
75006;BME280;63553;51.814;4.600;2024-02-23T11:48:34;99115.13;;;19.79;51.92
75006;BME280;63553;51.814;4.600;2024-02-23T11:51:00;99124.09;;;19.74;51.88
75006;BME280;63553;51.814;4.600;2024-02-23T11:53:25;99112.84;;;19.71;51.83
75006;BME280;63553;51.814;4.600;2024-02-23T11:55:52;99110.44;;;19.69;52.46
75006;BME280;63553;51.814;4.600;2024-02-23T11:58:17;99106.88;;;19.65;52.65
75006;BME280;63553;51.814;4.600;2024-02-23T12:00:43;99106.97;;;19.58;52.36
75006;BME280;63553;51.814;4.600;2024-02-23T12:03:08;99121.53;;;19.57;52.78
75006;BME280;63553;51.814;4.600;2024-02-23T12:05:35;99120.75;;;19.53;52.73
75006;BME280;63553;51.814;4.600;2024-02-23T12:08:00;99113.56;;;19.48;53.29
75006;BME280;63553;51.814;4.600;2024-02-23T12:10:26;99131.75;;;19.44;53.75
75006;BME280;63553;51.814;4.600;2024-02-23T12:12:53;99128.63;;;19.34;54.98
75006;BME280;63553;51.814;4.600;2024-02-23T12:15:19;99128.72;;;19.27;54.13
75006;BME280;63553;51.814;4.600;2024-02-23T12:17:48;99129.22;;;19.19;53.76
75006;BME280;63553;51.814;4.600;2024-02-23T12:20:14;99128.53;;;19.11;53.89
75006;BME280;63553;51.814;4.600;2024-02-23T12:22:42;99121.38;;;19.03;55.53
75006;BME280;63553;51.814;4.600;2024-02-23T12:25:08;99124.28;;;18.96;54.89
75006;BME280;63553;51.814;4.600;2024-02-23T12:27:33;99129.94;;;18.93;55.58
75006;BME280;63553;51.814;4.600;2024-02-23T12:29:59;99131.22;;;18.88;55.99
75006;BME280;63553;51.814;4.600;2024-02-23T12:32:24;99126.47;;;18.81;55.53
75006;BME280;63553;51.814;4.600;2024-02-23T12:34:50;99126.13;;;18.76;55.84
75006;BME280;63553;51.814;4.600;2024-02-23T12:37:18;99116.56;;;18.66;55.87
75006;BME280;63553;51.814;4.600;2024-02-23T12:39:44;99131.09;;;18.61;56.07
75006;BME280;63553;51.814;4.600;2024-02-23T12:42:10;99136.75;;;18.58;56.46
75006;BME280;63553;51.814;4.600;2024-02-23T12:44:35;99136.34;;;18.59;57.05
75006;BME280;63553;51.814;4.600;2024-02-23T12:47:00;99138.97;;;18.77;77.45
75006;BME280;63553;51.814;4.600;2024-02-23T12:49:26;99131.59;;;18.90;73.05
75006;BME280;63553;51.814;4.600;2024-02-23T12:51:51;99132.59;;;19.07;73.83
75006;BME280;63553;51.814;4.600;2024-02-23T12:54:16;99133.97;;;19.25;71.17